Terminal Aerodrome Forecast
Issued by NWS

Home | Current Version | Previous Version | Text Only | Print | Product List | Glossary On
Versions: 1 2 3 4 5 6 7 8 9 10 11 12 13 14
000
FTUS43 KIND 300533
TAFHUF
TAF
KHUF 300533Z 3006/3106 00000KT P6SM BKN100
     FM301430 20005KT P6SM BKN040
     FM301700 20006KT P6SM VCTS BKN050CB
     FM310200 18003KT P6SM BKN100=

USA.gov is the U.S. government's official web portal to all federal, state and local government web resources and services.